Time;durP1;ratioP1;P1;durP2;ratioP2;P2;SDS_P1;SDS_P2;PMS_P1;PMS_P2;Temp;Humidity;BMP_temperature;BMP_pressure;BME280_temperature;BME280_humidity;BME280_pressure;Samples;Min_cycle;Max_cycle;Signal;HPM_P1;HPM_P2
2022/05/02 00:02:25;;;;;;;13.50;12.20;;;11.40;99.90;;;;;;5158153;27;20437;-58
2022/05/02 00:04:52;;;;;;;15.27;13.67;;;11.20;99.90;;;;;;5158085;27;20577;-58
2022/05/02 00:07:21;;;;;;;14.27;12.77;;;11.20;99.90;;;;;;5157766;27;20942;-59
2022/05/02 00:09:48;;;;;;;13.30;12.00;;;11.10;99.90;;;;;;5157886;27;20467;-59
2022/05/02 00:12:15;;;;;;;13.83;12.40;;;11.20;99.90;;;;;;5157911;27;20444;-58
2022/05/02 00:14:42;;;;;;;14.80;13.30;;;11.20;99.90;;;;;;5157974;27;20464;-58
2022/05/02 00:17:09;;;;;;;17.03;15.23;;;11.20;99.90;;;;;;5157834;27;20447;-58
2022/05/02 00:19:36;;;;;;;17.77;15.17;;;11.20;99.90;;;;;;5157576;27;20466;-58
2022/05/02 00:22:04;;;;;;;16.80;14.70;;;11.20;99.90;;;;;;5157821;27;20523;-58
2022/05/02 00:24:33;;;;;;;16.03;14.23;;;11.10;99.90;;;;;;5157354;27;20447;-59
2022/05/02 00:27:00;;;;;;;15.60;14.00;;;11.10;99.90;;;;;;5157320;27;20588;-59
2022/05/02 00:29:27;;;;;;;18.70;14.67;;;11.00;99.90;;;;;;5157547;27;20571;-59
2022/05/02 00:31:54;;;;;;;15.17;13.63;;;10.90;99.90;;;;;;5157205;27;20441;-59
2022/05/02 00:34:21;;;;;;;14.83;13.27;;;10.70;99.90;;;;;;5157169;27;20444;-58
2022/05/02 00:36:48;;;;;;;15.83;12.87;;;10.80;99.90;;;;;;5157162;27;20449;-58
2022/05/02 00:39:16;;;;;;;16.87;15.13;;;10.70;99.90;;;;;;5157267;27;20457;-59
2022/05/02 00:41:44;;;;;;;15.23;13.63;;;10.70;99.90;;;;;;5157037;27;20487;-59
2022/05/02 00:44:11;;;;;;;16.50;14.63;;;10.70;99.90;;;;;;5157286;27;20440;-58
2022/05/02 00:46:39;;;;;;;15.67;14.17;;;10.80;99.90;;;;;;5157305;27;20448;-58
2022/05/02 00:49:07;;;;;;;16.13;14.23;;;10.90;99.90;;;;;;5156743;27;20487;-58
2022/05/02 00:51:34;;;;;;;14.23;12.83;;;10.90;99.90;;;;;;5157078;27;20449;-58
2022/05/02 00:54:01;;;;;;;14.80;13.17;;;10.90;99.90;;;;;;5156877;27;20968;-58
2022/05/02 00:56:28;;;;;;;14.83;13.33;;;10.90;99.90;;;;;;5156859;27;20507;-58
2022/05/02 00:58:56;;;;;;;15.40;13.80;;;10.90;99.90;;;;;;5156943;27;20449;-58
2022/05/02 01:01:23;;;;;;;14.47;13.07;;;10.90;99.90;;;;;;5157073;27;20840;-59
2022/05/02 01:03:51;;;;;;;13.00;11.73;;;10.80;99.90;;;;;;5156622;27;20448;-58
2022/05/02 01:09:04;;;;;;;16.47;12.83;;;10.70;99.90;;;;;;5156519;27;20476;-59
2022/05/02 01:11:31;;;;;;;14.17;12.67;;;10.70;99.90;;;;;;5156816;27;20456;-59
2022/05/02 01:13:59;;;;;;;14.20;12.80;;;10.70;99.90;;;;;;5156367;27;20448;-59
2022/05/02 01:16:28;;;;;;;16.73;15.03;;;10.80;99.90;;;;;;5156312;27;20452;-58
2022/05/02 01:18:57;;;;;;;16.07;14.57;;;10.80;99.90;;;;;;5156625;27;20552;-59
2022/05/02 01:21:29;;;;;;;15.87;14.27;;;10.80;99.90;;;;;;5156455;27;20533;-58
2022/05/02 01:23:59;;;;;;;14.97;13.50;;;10.90;99.90;;;;;;5156231;27;20986;-58
2022/05/02 01:26:27;;;;;;;15.33;13.80;;;11.00;99.90;;;;;;5156215;27;20536;-58
2022/05/02 01:28:55;;;;;;;15.33;13.33;;;11.00;99.90;;;;;;5155883;27;20580;-58
2022/05/02 01:31:23;;;;;;;13.43;11.97;;;11.10;99.90;;;;;;5156379;27;20447;-58
2022/05/02 01:33:52;;;;;;;15.57;14.10;;;11.10;99.90;;;;;;5155949;27;20528;-58
2022/05/02 01:36:20;;;;;;;14.47;13.00;;;11.00;99.90;;;;;;5156364;27;20444;-58
2022/05/02 01:38:51;;;;;;;14.97;13.40;;;11.10;99.90;;;;;;5155821;27;20471;-59
2022/05/02 01:41:19;;;;;;;13.67;12.33;;;11.20;99.90;;;;;;5156179;27;20420;-58
2022/05/02 01:43:46;;;;;;;14.00;12.80;;;11.30;99.90;;;;;;5155964;27;20859;-58
2022/05/02 01:46:14;;;;;;;13.30;11.90;;;11.30;99.90;;;;;;5156149;27;20451;-58
2022/05/02 01:48:42;;;;;;;14.80;13.50;;;11.30;99.90;;;;;;5155273;27;20494;-59
2022/05/02 01:51:09;;;;;;;14.47;13.00;;;11.30;99.90;;;;;;5155701;27;20445;-59
2022/05/02 01:53:36;;;;;;;14.47;12.77;;;11.20;99.90;;;;;;5156023;27;20448;-59
2022/05/02 01:56:05;;;;;;;14.13;12.93;;;11.30;99.90;;;;;;5155717;27;20449;-59
2022/05/02 01:58:32;;;;;;;12.87;11.60;;;11.20;99.90;;;;;;5155798;27;20461;-59
2022/05/02 02:00:59;;;;;;;14.57;13.17;;;11.10;99.90;;;;;;5155857;27;20437;-58
2022/05/02 02:03:26;;;;;;;16.90;15.00;;;11.00;99.90;;;;;;5155431;27;20449;-58
2022/05/02 02:05:52;;;;;;;13.57;12.17;;;11.10;99.90;;;;;;5155714;27;20447;-58
2022/05/02 02:08:24;;;;;;;17.07;13.70;;;11.00;99.90;;;;;;5155360;27;21040;-58
2022/05/02 02:10:53;;;;;;;15.57;13.00;;;11.10;99.90;;;;;;5155372;27;20892;-59
2022/05/02 02:13:22;;;;;;;13.90;12.20;;;11.00;99.90;;;;;;5155232;27;20447;-58
2022/05/02 02:15:49;;;;;;;16.90;13.80;;;10.90;99.90;;;;;;5155629;27;20448;-59
2022/05/02 02:18:16;;;;;;;13.73;12.43;;;10.80;99.90;;;;;;5155760;27;20799;-59
2022/05/02 02:20:45;;;;;;;13.87;12.43;;;10.80;99.90;;;;;;5155017;27;20924;-59
2022/05/02 02:23:13;;;;;;;14.83;13.33;;;10.90;99.90;;;;;;5155169;27;20987;-58
2022/05/02 02:25:40;;;;;;;14.83;12.90;;;11.00;99.90;;;;;;5155177;27;20473;-59
2022/05/02 02:28:08;;;;;;;14.80;13.07;;;11.00;99.90;;;;;;5154852;27;20579;-59
2022/05/02 02:30:37;;;;;;;15.40;13.43;;;11.00;99.90;;;;;;5155359;27;20447;-59
2022/05/02 02:33:04;;;;;;;15.03;13.53;;;11.00;99.90;;;;;;5155122;27;20444;-60
2022/05/02 02:35:31;;;;;;;14.60;13.20;;;11.10;99.90;;;;;;5155279;27;20536;-58
2022/05/02 02:37:59;;;;;;;14.40;12.50;;;11.00;99.90;;;;;;5155206;27;20830;-57
2022/05/02 02:40:26;;;;;;;14.97;13.60;;;11.00;99.90;;;;;;5155034;27;20443;-58
2022/05/02 02:42:53;;;;;;;15.53;13.93;;;10.90;99.90;;;;;;5155201;27;20444;-58
2022/05/02 02:45:20;;;;;;;15.17;13.30;;;11.00;99.90;;;;;;5155156;27;20441;-58
2022/05/02 02:47:49;;;;;;;14.73;13.27;;;11.10;99.90;;;;;;5154902;27;20966;-58
2022/05/02 02:50:16;;;;;;;13.97;12.60;;;11.10;99.90;;;;;;5154743;27;20477;-57
2022/05/02 02:52:44;;;;;;;16.10;12.97;;;11.10;99.90;;;;;;5155159;27;20543;-58
2022/05/02 02:55:11;;;;;;;14.97;12.77;;;11.10;99.90;;;;;;5154883;27;20484;-57
2022/05/02 02:57:38;;;;;;;14.87;13.53;;;11.00;99.90;;;;;;5155092;27;20484;-57
2022/05/02 03:00:11;;;;;;;20.73;13.93;;;11.00;99.90;;;;;;5155553;27;20533;-58
2022/05/02 03:02:39;;;;;;;15.03;13.60;;;11.00;99.90;;;;;;5159210;27;20496;-57
2022/05/02 03:07:53;;;;;;;16.57;13.83;;;11.10;99.90;;;;;;5159205;27;20550;-58
2022/05/02 03:10:20;;;;;;;15.63;14.13;;;11.10;99.90;;;;;;5159084;27;20480;-58
2022/05/02 03:12:47;;;;;;;14.40;12.90;;;11.20;99.90;;;;;;5159115;27;20456;-58
2022/05/02 03:15:15;;;;;;;16.87;13.80;;;11.20;99.90;;;;;;5158943;27;20428;-59
2022/05/02 03:17:42;;;;;;;14.40;12.90;;;11.30;99.90;;;;;;5159000;27;20440;-59
2022/05/02 03:20:12;;;;;;;14.30;12.80;;;11.30;99.90;;;;;;5158918;27;20491;-58
2022/05/02 03:22:39;;;;;;;15.53;13.93;;;11.30;99.90;;;;;;5158695;27;20452;-57
2022/05/02 03:25:07;;;;;;;15.87;13.90;;;11.20;99.90;;;;;;5158863;27;20451;-59
2022/05/02 03:27:35;;;;;;;18.03;13.93;;;11.20;99.90;;;;;;5158295;27;20476;-57
2022/05/02 03:30:02;;;;;;;16.37;14.70;;;11.20;99.90;;;;;;5158469;27;20476;-59
2022/05/02 03:32:29;;;;;;;14.97;13.67;;;11.30;99.90;;;;;;5158351;27;20441;-58
2022/05/02 03:34:56;;;;;;;16.20;14.43;;;11.20;99.90;;;;;;5158398;27;20998;-59
2022/05/02 03:37:25;;;;;;;13.33;12.07;;;11.20;99.90;;;;;;5158726;27;20447;-58
2022/05/02 03:39:52;;;;;;;14.57;13.07;;;11.20;99.90;;;;;;5158394;27;20922;-59
2022/05/02 03:42:19;;;;;;;16.03;12.97;;;11.10;99.90;;;;;;5158494;27;20977;-58
2022/05/02 03:44:46;;;;;;;14.10;12.53;;;11.00;99.90;;;;;;5158523;27;20441;-58
2022/05/02 03:47:13;;;;;;;13.53;12.13;;;11.10;99.90;;;;;;5158146;27;20923;-58
2022/05/02 03:49:41;;;;;;;15.63;13.93;;;11.20;99.90;;;;;;5157892;27;20480;-59
2022/05/02 03:52:08;;;;;;;15.70;14.10;;;11.30;99.90;;;;;;5158011;27;20466;-58
2022/05/02 03:54:37;;;;;;;14.60;13.17;;;11.30;99.90;;;;;;5158399;27;20480;-59
2022/05/02 03:57:04;;;;;;;15.60;14.10;;;11.20;99.90;;;;;;5158108;27;20949;-58
2022/05/02 03:59:31;;;;;;;16.37;13.47;;;11.20;99.90;;;;;;5158123;27;20459;-58
2022/05/02 04:01:58;;;;;;;13.93;12.63;;;11.20;99.90;;;;;;5158201;27;20444;-58
2022/05/02 04:04:25;;;;;;;15.50;14.00;;;11.20;99.90;;;;;;5157677;27;20939;-58
2022/05/02 04:06:52;;;;;;;15.57;13.90;;;11.40;99.90;;;;;;5157998;27;20818;-58
2022/05/02 04:09:20;;;;;;;15.77;13.70;;;11.40;99.90;;;;;;5157585;27;20571;-59
2022/05/02 04:11:48;;;;;;;17.57;14.27;;;11.40;99.90;;;;;;5157205;27;20441;-59
2022/05/02 04:14:15;;;;;;;18.50;13.73;;;11.50;99.90;;;;;;5157468;27;20536;-59
2022/05/02 04:16:42;;;;;;;15.10;13.60;;;11.50;99.90;;;;;;5157881;27;20528;-58
2022/05/02 04:19:09;;;;;;;15.20;13.70;;;11.50;99.90;;;;;;5157342;27;20456;-58
2022/05/02 04:21:37;;;;;;;15.03;13.50;;;11.50;99.90;;;;;;5157485;27;20451;-58
2022/05/02 04:24:04;;;;;;;14.83;13.37;;;11.50;99.90;;;;;;5157410;27;20458;-59
2022/05/02 04:26:31;;;;;;;16.40;13.43;;;11.30;99.90;;;;;;5157637;27;20475;-59
2022/05/02 04:29:00;;;;;;;15.33;13.73;;;11.20;99.90;;;;;;5156941;27;20492;-59
2022/05/02 04:31:27;;;;;;;15.63;13.93;;;11.10;99.90;;;;;;5157571;27;20439;-59
2022/05/02 04:33:54;;;;;;;14.40;13.13;;;11.20;99.90;;;;;;5157503;27;20448;-59
2022/05/02 04:36:21;;;;;;;15.87;14.37;;;11.10;99.90;;;;;;5157383;27;20452;-59
2022/05/02 04:38:48;;;;;;;15.07;13.40;;;11.10;99.90;;;;;;5157141;27;20471;-58
2022/05/02 04:41:16;;;;;;;15.13;13.47;;;11.10;99.90;;;;;;5157050;27;20447;-59
2022/05/02 04:43:44;;;;;;;15.20;13.70;;;11.20;99.90;;;;;;5156906;27;20451;-59
2022/05/02 04:46:12;;;;;;;15.80;14.20;;;11.30;99.90;;;;;;5157167;27;20429;-59
2022/05/02 04:48:39;;;;;;;15.93;13.50;;;11.40;99.90;;;;;;5156905;27;20471;-58
2022/05/02 04:51:06;;;;;;;17.03;14.33;;;11.40;99.90;;;;;;5156679;27;20535;-58
2022/05/02 04:53:34;;;;;;;19.03;15.33;;;11.40;99.90;;;;;;5156789;27;20445;-58
2022/05/02 04:56:02;;;;;;;20.30;16.70;;;11.40;99.90;;;;;;5156963;27;20804;-58
2022/05/02 04:58:29;;;;;;;16.33;14.80;;;11.40;99.90;;;;;;5156584;27;20471;-60
2022/05/02 05:00:56;;;;;;;16.50;15.00;;;11.40;99.90;;;;;;5156517;27;20448;-59
2022/05/02 05:03:26;;;;;;;17.20;14.60;;;11.40;99.90;;;;;;5156599;27;20953;-58
2022/05/02 05:05:55;;;;;;;16.03;14.43;;;11.40;99.90;;;;;;5156442;27;20451;-59
2022/05/02 05:08:22;;;;;;;17.87;14.83;;;11.50;99.90;;;;;;5156255;27;20970;-57
2022/05/02 05:11:06;;;;;;;14.73;13.30;;;11.50;99.90;;;;;;5156327;27;20479;-58
2022/05/02 05:13:40;;;;;;;16.37;13.97;;;11.40;99.90;;;;;;5156645;27;20432;-59
2022/05/02 05:16:27;;;;;;;16.43;14.63;;;11.40;99.90;;;;;;5156648;27;20429;-58
2022/05/02 05:19:09;;;;;;;15.90;14.27;;;11.40;99.90;;;;;;5156549;27;20463;-58
2022/05/02 05:21:52;;;;;;;18.27;15.50;;;11.40;99.90;;;;;;5156305;27;20429;-58
2022/05/02 05:24:49;;;;;;;17.17;15.30;;;11.40;99.90;;;;;;5155882;27;20421;-58
2022/05/02 05:27:29;;;;;;;17.37;15.53;;;11.40;99.90;;;;;;5155791;27;21013;-57
2022/05/02 05:30:04;;;;;;;20.03;16.33;;;11.40;99.90;;;;;;5156002;27;21033;-58
2022/05/02 05:32:44;;;;;;;24.47;16.10;;;11.40;99.90;;;;;;5156002;27;20519;-58
2022/05/02 05:35:21;;;;;;;25.93;18.70;;;11.40;99.90;;;;;;5155729;27;20971;-57
2022/05/02 05:38:10;;;;;;;19.03;17.03;;;11.50;99.90;;;;;;5155498;27;20826;-57
2022/05/02 05:40:39;;;;;;;20.30;18.10;;;11.50;99.90;;;;;;5155602;27;20911;-58
2022/05/02 05:43:36;;;;;;;20.20;17.93;;;11.40;99.90;;;;;;5155859;27;20468;-58
2022/05/02 05:46:23;;;;;;;22.50;17.40;;;11.50;99.90;;;;;;5135049;27;20448;-58
2022/05/02 05:49:02;;;;;;;17.93;16.13;;;11.60;99.90;;;;;;5155546;27;20983;-58
2022/05/02 05:51:35;;;;;;;19.20;17.30;;;11.60;99.90;;;;;;5155896;27;20498;-58
2022/05/02 05:54:19;;;;;;;21.40;19.20;;;11.70;99.90;;;;;;5155652;27;20425;-59
2022/05/02 05:56:57;;;;;;;22.10;19.80;;;11.60;99.90;;;;;;5155716;27;20480;-60
2022/05/02 05:59:33;;;;;;;26.73;19.27;;;11.70;99.90;;;;;;5155812;27;20552;-61
2022/05/02 06:02:10;;;;;;;22.70;20.37;;;11.80;99.90;;;;;;5156161;27;20513;-60
2022/05/02 06:04:38;;;;;;;25.37;20.13;;;11.90;99.90;;;;;;5155709;27;20421;-60
2022/05/02 06:07:08;;;;;;;23.70;19.60;;;11.90;99.90;;;;;;5155331;27;20441;-61
2022/05/02 06:09:37;;;;;;;23.80;20.67;;;12.00;99.90;;;;;;5155246;27;20477;-60
2022/05/02 06:12:07;;;;;;;22.60;20.07;;;12.00;99.90;;;;;;5155198;27;20444;-60
2022/05/02 06:18:27;;;;;;;21.13;18.90;;;12.10;99.90;;;;;;5155201;27;20449;-60
2022/05/02 06:20:15;;;;;;;22.93;20.60;;;12.10;99.90;;;;;;5155023;27;20404;-59
2022/05/02 06:22:46;;;;;;;20.93;18.70;;;12.20;99.90;;;;;;5154614;27;20449;-59
2022/05/02 06:25:15;;;;;;;24.37;18.60;;;12.30;99.90;;;;;;5155058;27;20441;-59
2022/05/02 06:27:44;;;;;;;19.97;17.90;;;12.40;99.90;;;;;;5154905;27;20830;-59
2022/05/02 06:30:12;;;;;;;22.17;19.50;;;12.40;99.90;;;;;;5155005;27;20485;-60
2022/05/02 06:32:44;;;;;;;21.20;19.00;;;12.40;99.90;;;;;;5154904;27;20433;-59
2022/05/02 06:35:12;;;;;;;23.93;20.20;;;12.30;99.90;;;;;;5154318;27;20513;-59
2022/05/02 06:37:48;;;;;;;21.47;19.30;;;12.30;99.90;;;;;;5154632;27;20841;-59
2022/05/02 06:40:22;;;;;;;23.70;21.10;;;12.50;99.90;;;;;;5154832;27;20420;-58
2022/05/02 06:43:01;;;;;;;24.33;18.93;;;12.50;99.90;;;;;;5154784;27;20420;-59
2022/05/02 06:45:38;;;;;;;23.03;20.77;;;12.60;99.90;;;;;;5154746;27;20421;-58
2022/05/02 06:48:29;;;;;;;21.90;19.70;;;12.70;99.90;;;;;;5155046;27;20543;-58
2022/05/02 06:51:01;;;;;;;24.43;20.60;;;12.80;99.90;;;;;;5154615;27;20461;-58
2022/05/02 06:53:43;;;;;;;25.23;21.07;;;12.90;99.90;;;;;;5155428;27;20437;-59
2022/05/02 06:56:19;;;;;;;21.43;19.47;;;13.00;99.90;;;;;;5154733;27;20465;-58
2022/05/02 06:58:56;;;;;;;21.23;19.00;;;12.90;99.90;;;;;;5154586;27;20555;-59
2022/05/02 07:01:28;;;;;;;22.40;20.17;;;12.90;99.90;;;;;;5155025;27;20419;-59
2022/05/02 07:04:21;;;;;;;23.40;20.57;;;13.00;99.90;;;;;;5154891;27;20443;-59
2022/05/02 07:07:04;;;;;;;21.13;18.97;;;13.10;99.90;;;;;;5137437;27;20459;-59
2022/05/02 07:09:42;;;;;;;27.50;20.53;;;13.00;99.90;;;;;;5154374;27;20545;-59
2022/05/02 07:15:13;;;;;;;24.93;20.07;;;13.30;99.90;;;;;;5147628;27;20447;-59
2022/05/02 07:17:55;;;;;;;22.73;20.23;;;13.50;99.90;;;;;;5154344;27;20876;-59
2022/05/02 07:20:28;;;;;;;21.07;18.90;;;13.50;99.90;;;;;;5154687;27;20481;-59
2022/05/02 07:23:18;;;;;;;22.47;20.17;;;13.50;99.90;;;;;;5154433;27;20421;-59
2022/05/02 07:25:52;;;;;;;23.23;20.90;;;13.60;99.90;;;;;;5154681;27;20421;-59
2022/05/02 07:28:30;;;;;;;21.77;18.90;;;13.70;99.90;;;;;;5154140;27;20523;-58
2022/05/02 07:30:59;;;;;;;23.80;20.40;;;13.80;99.90;;;;;;5154170;27;20465;-59
2022/05/02 07:33:31;;;;;;;21.07;18.67;;;14.00;99.90;;;;;;5154307;27;20441;-59
2022/05/02 07:36:02;;;;;;;27.47;21.10;;;14.00;99.90;;;;;;5154566;27;20425;-60
2022/05/02 07:38:31;;;;;;;23.10;20.70;;;13.90;99.90;;;;;;5154595;27;20469;-59
2022/05/02 07:43:50;;;;;;;22.53;20.13;;;14.00;99.90;;;;;;5154337;27;20541;-58
2022/05/02 07:46:22;;;;;;;23.93;21.30;;;13.90;99.90;;;;;;5154433;27;20441;-58
2022/05/02 07:48:52;;;;;;;25.10;20.30;;;13.90;99.90;;;;;;5157518;27;20460;-59
2022/05/02 07:51:20;;;;;;;21.70;19.50;;;14.00;99.90;;;;;;5158134;27;20539;-59
2022/05/02 07:53:51;;;;;;;21.70;19.53;;;14.40;99.90;;;;;;5157836;27;20943;-58
2022/05/02 07:56:24;;;;;;;25.57;18.60;;;15.20;99.90;;;;;;5158054;27;20463;-58
2022/05/02 07:58:53;;;;;;;20.00;17.83;;;16.00;99.90;;;;;;5157815;27;20441;-58
2022/05/02 08:01:22;;;;;;;20.93;17.83;;;16.80;99.90;;;;;;5158074;27;20496;-58
2022/05/02 08:03:50;;;;;;;19.33;15.93;;;17.20;99.90;;;;;;5157869;27;20469;-58
2022/05/02 08:06:30;;;;;;;20.10;17.17;;;17.30;99.90;;;;;;5157712;27;20962;-59
2022/05/02 08:09:06;;;;;;;18.13;16.43;;;17.90;99.90;;;;;;5157490;27;20543;-59
2022/05/02 08:11:43;;;;;;;19.50;17.57;;;18.30;99.90;;;;;;5157784;27;20467;-59
2022/05/02 08:14:17;;;;;;;21.57;17.90;;;18.70;99.90;;;;;;5157626;27;20793;-58
2022/05/02 08:16:59;;;;;;;18.13;16.50;;;18.30;99.90;;;;;;5157806;27;20433;-58
2022/05/02 08:19:42;;;;;;;17.73;15.93;;;18.70;99.90;;;;;;5157126;27;20819;-58
2022/05/02 08:28:01;;;;;;;17.70;16.10;;;19.80;99.90;;;;;;5157222;27;20475;-58
2022/05/02 08:30:34;;;;;;;18.73;16.97;;;20.10;99.90;;;;;;5157455;27;20465;-59
2022/05/02 08:33:05;;;;;;;19.40;17.60;;;20.10;99.90;;;;;;5156953;27;20429;-60
2022/05/02 08:35:44;;;;;;;17.17;15.77;;;20.60;99.90;;;;;;5157128;27;20899;-59
2022/05/02 08:38:42;;;;;;;20.40;16.23;;;20.60;99.90;;;;;;5157280;27;20460;-58
2022/05/02 08:41:46;;;;;;;18.17;15.00;;;21.50;98.40;;;;;;5150191;27;20821;-59
2022/05/02 08:44:50;;;;;;;15.80;14.40;;;21.30;97.50;;;;;;5156878;27;20458;-59
2022/05/02 08:48:03;;;;;;;17.20;15.47;;;21.40;96.90;;;;;;5156898;27;20800;-59
2022/05/02 08:50:56;;;;;;;16.73;15.13;;;20.50;97.70;;;;;;5156732;27;20467;-59
2022/05/02 08:54:11;;;;;;;16.40;14.57;;;20.90;97.00;;;;;;5157007;27;20455;-59
2022/05/02 08:57:05;;;;;;;16.10;14.60;;;21.90;96.20;;;;;;5157127;27;20445;-59
2022/05/02 09:00:06;;;;;;;16.03;13.70;;;22.00;95.50;;;;;;5148704;27;20834;-59
2022/05/02 09:03:13;;;;;;;12.93;11.63;;;22.80;95.20;;;;;;5156606;27;20431;-59
2022/05/02 09:05:51;;;;;;;12.50;11.30;;;22.80;92.90;;;;;;5156501;27;20440;-59
2022/05/02 09:08:52;;;;;;;13.27;12.20;;;23.10;93.70;;;;;;5156842;27;20475;-58
2022/05/02 09:11:35;;;;;;;13.33;12.20;;;23.20;92.90;;;;;;5156575;27;20472;-60
2022/05/02 09:14:44;;;;;;;15.17;13.77;;;22.30;92.00;;;;;;5156587;27;20896;-59
2022/05/02 09:17:59;;;;;;;17.80;14.23;;;22.50;93.10;;;;;;5156314;27;20437;-58
2022/05/02 09:20:50;;;;;;;15.80;14.40;;;22.90;91.60;;;;;;5156363;27;20469;-58
2022/05/02 09:23:58;;;;;;;14.17;12.97;;;22.20;91.80;;;;;;5155714;27;20410;-59
2022/05/02 09:27:13;;;;;;;16.30;14.73;;;22.50;92.30;;;;;;5156470;27;20790;-58
2022/05/02 09:30:04;;;;;;;16.83;15.33;;;22.20;92.60;;;;;;5147850;27;20465;-58
2022/05/02 09:32:46;;;;;;;15.90;14.40;;;22.10;91.90;;;;;;5155814;27;21041;-57
2022/05/02 09:35:19;;;;;;;15.43;14.00;;;23.00;92.50;;;;;;5156122;27;20432;-58
2022/05/02 09:38:17;;;;;;;13.70;12.40;;;23.30;91.60;;;;;;5155862;27;20468;-59
2022/05/02 09:40:45;;;;;;;14.13;12.77;;;23.30;88.90;;;;;;5155716;27;20437;-58
2022/05/02 09:50:03;;;;;;;11.67;10.57;;;20.90;90.60;;;;;;5155802;27;20432;-58
2022/05/02 09:52:35;;;;;;;10.57;9.53;;;21.90;91.10;;;;;;5155665;27;20551;-61
2022/05/02 09:58:36;;;;;;;10.80;9.80;;;22.60;90.50;;;;;;5155960;27;20471;-59
2022/05/02 10:01:17;;;;;;;11.87;10.77;;;23.10;89.50;;;;;;5155425;27;20926;-59
2022/05/02 10:04:12;;;;;;;11.40;10.30;;;23.30;86.40;;;;;;5155686;27;20421;-59
2022/05/02 10:06:47;;;;;;;9.83;9.03;;;23.70;85.90;;;;;;5155321;27;20489;-59
2022/05/02 10:09:22;;;;;;;10.83;9.87;;;24.00;86.60;;;;;;5155197;27;20467;-59
2022/05/02 10:12:04;;;;;;;11.50;9.43;;;23.10;85.20;;;;;;5154588;27;20490;-59
2022/05/02 10:14:50;;;;;;;11.40;9.33;;;23.40;84.90;;;;;;5155236;27;20425;-60
2022/05/02 10:17:36;;;;;;;9.37;8.60;;;23.80;86.60;;;;;;5155190;27;20481;-60
2022/05/02 10:20:16;;;;;;;12.90;9.97;;;24.20;85.50;;;;;;5155569;27;20512;-59
2022/05/02 10:22:59;;;;;;;11.70;10.40;;;22.80;83.70;;;;;;5155121;27;20498;-58
2022/05/02 10:25:36;;;;;;;11.40;10.43;;;22.30;87.70;;;;;;5155066;27;20432;-59
2022/05/02 10:28:25;;;;;;;11.20;10.20;;;22.10;84.50;;;;;;5153895;27;20497;-59
2022/05/02 10:31:00;;;;;;;10.97;9.97;;;21.90;83.50;;;;;;5155092;27;20493;-60
2022/05/02 10:33:35;;;;;;;10.33;9.17;;;22.20;84.60;;;;;;5155357;27;20825;-59
2022/05/02 10:36:05;;;;;;;9.30;8.50;;;23.00;83.20;;;;;;5155588;27;20462;-60
2022/05/02 10:38:44;;;;;;;9.97;8.97;;;22.40;84.30;;;;;;5154645;27;20511;-58
2022/05/02 10:41:17;;;;;;;10.70;9.83;;;21.70;87.00;;;;;;5154757;27;20425;-59
2022/05/02 10:43:50;;;;;;;9.50;8.60;;;20.60;88.00;;;;;;5154749;27;20433;-59
2022/05/02 10:46:19;;;;;;;11.20;10.10;;;20.10;85.10;;;;;;5154899;27;20907;-59
2022/05/02 10:48:52;;;;;;;9.80;8.90;;;19.50;88.60;;;;;;5152918;27;20536;-59
2022/05/02 10:51:31;;;;;;;10.93;9.83;;;19.00;89.80;;;;;;5151976;27;20504;-59
2022/05/02 10:54:14;;;;;;;9.90;8.90;;;19.40;90.30;;;;;;5153239;27;20433;-60
2022/05/02 10:56:43;;;;;;;9.83;9.03;;;20.30;90.40;;;;;;5152585;27;20961;-60
2022/05/02 10:59:15;;;;;;;9.70;8.60;;;19.90;85.20;;;;;;5152958;27;20468;-59
2022/05/02 11:02:29;;;;;;;9.53;6.90;;;20.50;87.80;;;;;;5152518;27;20417;-60
2022/05/02 11:05:09;;;;;;;8.10;7.40;;;20.90;86.90;;;;;;5088187;28;20448;-59
2022/05/02 11:07:59;;;;;;;7.60;7.00;;;21.60;87.40;;;;;;5088561;28;20511;-60
2022/05/02 11:10:29;;;;;;;8.07;7.37;;;21.90;83.70;;;;;;5134733;27;20433;-60
2022/05/02 11:13:11;;;;;;;10.40;8.07;;;22.00;83.00;;;;;;5155027;27;20469;-59
2022/05/02 11:15:55;;;;;;;8.83;7.80;;;21.30;82.20;;;;;;5154661;27;20933;-60
2022/05/02 11:21:30;;;;;;;8.03;7.23;;;21.50;84.20;;;;;;5155282;27;20438;-60
2022/05/02 11:24:18;;;;;;;8.33;6.87;;;21.10;82.40;;;;;;5159170;27;20477;-61
2022/05/02 11:26:51;;;;;;;10.63;7.70;;;20.90;80.60;;;;;;5158228;27;20452;-60
2022/05/02 11:29:30;;;;;;;8.00;7.20;;;21.00;81.50;;;;;;5158480;27;20532;-60
2022/05/02 11:32:04;;;;;;;8.00;7.30;;;20.90;84.80;;;;;;5158205;27;20463;-60
2022/05/02 11:34:42;;;;;;;7.57;6.80;;;21.10;84.40;;;;;;5158605;27;20455;-60
2022/05/02 11:37:16;;;;;;;8.03;7.23;;;21.20;85.30;;;;;;5158291;27;20435;-59
2022/05/02 11:39:50;;;;;;;7.97;7.27;;;20.90;85.00;;;;;;5158471;27;20505;-61
2022/05/02 11:42:21;;;;;;;9.87;8.40;;;20.40;85.70;;;;;;5158135;27;20432;-60
2022/05/02 11:45:00;;;;;;;9.43;8.70;;;20.80;86.30;;;;;;5158171;27;20441;-59
2022/05/02 11:47:42;;;;;;;8.33;7.53;;;21.20;83.80;;;;;;5158031;27;20438;-60
2022/05/02 11:50:10;;;;;;;9.97;9.10;;;21.10;84.50;;;;;;5158252;27;20454;-59
2022/05/02 11:52:39;;;;;;;7.80;7.07;;;20.90;87.20;;;;;;5157974;27;20571;-59
2022/05/02 11:55:09;;;;;;;8.73;7.80;;;20.30;84.20;;;;;;5157916;27;20458;-60
2022/05/02 11:57:38;;;;;;;7.70;6.90;;;20.30;87.40;;;;;;5157387;27;20463;-60
2022/05/02 12:00:09;;;;;;;8.33;7.53;;;20.40;86.10;;;;;;5158042;27;20473;-60
2022/05/02 12:02:56;;;;;;;8.03;7.27;;;20.20;87.70;;;;;;5158226;27;20439;-61
2022/05/02 12:05:27;;;;;;;7.30;6.60;;;20.40;87.50;;;;;;5156993;27;20452;-60
2022/05/02 12:07:55;;;;;;;8.03;7.03;;;21.00;89.90;;;;;;5157949;27;20483;-60
2022/05/02 12:10:32;;;;;;;11.20;6.90;;;21.70;86.30;;;;;;5157538;27;20535;-60
2022/05/02 12:13:01;;;;;;;9.03;6.50;;;;;;;;;;5157688;27;20464;-59
2022/05/02 12:15:29;;;;;;;7.07;6.50;;;22.30;83.70;;;;;;5157727;27;20456;-59
2022/05/02 12:18:03;;;;;;;7.10;6.40;;;21.90;81.80;;;;;;5157569;27;20548;-59
2022/05/02 12:20:32;;;;;;;8.90;7.40;;;21.00;80.70;;;;;;5157672;27;20433;-59
2022/05/02 12:23:06;;;;;;;7.33;6.73;;;20.90;83.30;;;;;;5157355;27;20437;-59
2022/05/02 12:25:34;;;;;;;6.80;6.20;;;20.40;81.60;;;;;;5157616;27;20448;-59
2022/05/02 12:28:04;;;;;;;7.37;6.67;;;20.50;83.70;;;;;;5156881;27;20481;-60
2022/05/02 12:30:32;;;;;;;9.60;6.60;;;20.30;81.60;;;;;;5157384;27;20448;-59
2022/05/02 12:33:05;;;;;;;6.63;5.33;;;20.30;82.70;;;;;;5156211;27;20508;-60
2022/05/02 12:35:37;;;;;;;5.93;5.43;;;20.80;84.00;;;;;;5157439;27;20425;-60
2022/05/02 12:38:24;;;;;;;6.50;5.80;;;22.10;80.60;;;;;;5157312;27;20464;-61
2022/05/02 12:40:57;;;;;;;5.63;5.13;;;22.50;77.50;;;;;;5157524;27;20429;-61
2022/05/02 12:43:29;;;;;;;6.00;5.30;;;23.30;80.50;;;;;;5156808;27;20433;-60
2022/05/02 12:46:00;;;;;;;6.13;5.73;;;23.50;77.20;;;;;;5157070;27;20469;-61
2022/05/02 12:48:38;;;;;;;6.30;5.70;;;23.50;77.50;;;;;;5156951;27;20477;-60
2022/05/02 12:51:08;;;;;;;7.33;6.73;;;22.60;79.80;;;;;;5157159;27;20425;-60
2022/05/02 12:56:20;;;;;;;6.43;5.93;;;21.20;80.90;;;;;;5156804;27;20883;-60
2022/05/02 13:01:43;;;;;;;6.93;6.33;;;20.70;83.20;;;;;;5156596;27;20415;-60
2022/05/02 13:04:17;;;;;;;8.00;7.00;;;20.50;85.70;;;;;;5156565;27;20429;-60
2022/05/02 13:06:46;;;;;;;6.53;6.03;;;20.60;84.80;;;;;;5156505;27;20426;-60
2022/05/02 13:09:16;;;;;;;6.33;5.83;;;20.70;86.70;;;;;;5156511;27;20472;-60
2022/05/02 13:11:45;;;;;;;5.43;4.93;;;21.20;82.60;;;;;;5156326;27;20480;-60
2022/05/02 13:14:22;;;;;;;6.27;5.77;;;20.80;80.90;;;;;;5156226;27;20962;-60
2022/05/02 13:16:49;;;;;;;6.27;5.77;;;20.60;83.30;;;;;;5156639;27;20506;-60
2022/05/02 13:19:18;;;;;;;5.70;5.20;;;20.50;83.60;;;;;;5156579;27;20465;-60
2022/05/02 13:21:56;;;;;;;4.90;4.50;;;20.60;82.60;;;;;;5156384;27;20860;-60
2022/05/02 13:24:23;;;;;;;4.63;4.23;;;20.50;80.70;;;;;;5155960;27;20409;-60
2022/05/02 13:27:12;;;;;;;6.33;4.80;;;20.20;80.80;;;;;;5155448;27;20470;-60
2022/05/02 13:30:03;;;;;;;4.43;4.03;;;20.00;79.60;;;;;;5155974;27;20496;-60
2022/05/02 13:32:35;;;;;;;5.47;4.40;;;19.80;82.10;;;;;;5156004;27;20496;-60
2022/05/02 13:35:17;;;;;;;5.57;4.70;;;20.00;84.40;;;;;;5156014;27;20429;-60
2022/05/02 13:37:53;;;;;;;4.93;4.47;;;20.10;82.40;;;;;;5156149;27;20424;-59
2022/05/02 13:40:58;;;;;;;5.30;4.80;;;20.30;83.00;;;;;;5156160;27;20512;-60
2022/05/02 13:43:34;;;;;;;6.00;5.33;;;20.40;80.70;;;;;;5155742;27;20468;-60
2022/05/02 13:46:17;;;;;;;8.13;5.50;;;20.60;83.00;;;;;;5155440;27;20436;-60
2022/05/02 13:49:03;;;;;;;6.27;5.67;;;20.80;84.10;;;;;;5156013;27;20805;-59